sensor_id;sensor_type;location;lat;lon;timestamp;noise_LAeq;noise_LA_min;noise_LA_max;noise_LA01;noise_LA95
37279;Laerm;7458;49.002;8.472;2023-07-08T00:01:13;55.70;37.88;73.45;;
37279;Laerm;7458;49.002;8.472;2023-07-08T00:03:40;53.58;38.37;75.80;;
37279;Laerm;7458;49.002;8.472;2023-07-08T00:06:16;50.49;36.20;69.78;;
37279;Laerm;7458;49.002;8.472;2023-07-08T00:08:42;41.91;36.69;60.49;;
37279;Laerm;7458;49.002;8.472;2023-07-08T00:11:11;52.51;37.32;70.86;;
37279;Laerm;7458;49.002;8.472;2023-07-08T00:13:37;49.28;36.45;66.35;;
37279;Laerm;7458;49.002;8.472;2023-07-08T00:16:03;50.13;37.12;66.25;;
37279;Laerm;7458;49.002;8.472;2023-07-08T00:18:29;45.55;37.12;61.39;;
37279;Laerm;7458;49.002;8.472;2023-07-08T00:20:55;46.49;35.66;65.50;;
37279;Laerm;7458;49.002;8.472;2023-07-08T00:23:21;41.26;35.94;55.27;;
37279;Laerm;7458;49.002;8.472;2023-07-08T00:25:48;54.22;37.32;71.10;;
37279;Laerm;7458;49.002;8.472;2023-07-08T00:28:20;55.81;35.94;75.54;;
37279;Laerm;7458;49.002;8.472;2023-07-08T00:30:47;43.45;36.45;59.25;;
37279;Laerm;7458;49.002;8.472;2023-07-08T00:33:13;42.88;36.20;58.27;;
37279;Laerm;7458;49.002;8.472;2023-07-08T00:35:42;51.96;36.77;69.96;;
37279;Laerm;7458;49.002;8.472;2023-07-08T00:38:26;41.05;34.69;56.39;;
37279;Laerm;7458;49.002;8.472;2023-07-08T00:41:34;42.80;36.45;57.97;;
37279;Laerm;7458;49.002;8.472;2023-07-08T00:44:01;49.01;36.69;66.43;;
37279;Laerm;7458;49.002;8.472;2023-07-08T00:51:36;42.06;36.91;56.93;;
37279;Laerm;7458;49.002;8.472;2023-07-08T00:54:10;48.90;36.20;67.06;;
37279;Laerm;7458;49.002;8.472;2023-07-08T00:56:53;52.82;37.12;71.63;;
37279;Laerm;7458;49.002;8.472;2023-07-08T00:59:35;45.03;38.05;61.20;;
37279;Laerm;7458;49.002;8.472;2023-07-08T01:02:07;54.98;37.88;71.84;;
37279;Laerm;7458;49.002;8.472;2023-07-08T01:04:51;42.92;37.70;63.00;;
37279;Laerm;7458;49.002;8.472;2023-07-08T01:07:18;41.45;37.32;50.65;;
37279;Laerm;7458;49.002;8.472;2023-07-08T01:09:55;58.10;36.91;78.15;;
37279;Laerm;7458;49.002;8.472;2023-07-08T01:12:30;55.65;37.32;75.40;;
37279;Laerm;7458;49.002;8.472;2023-07-08T01:14:58;58.92;38.21;79.82;;
37279;Laerm;7458;49.002;8.472;2023-07-08T01:17:26;42.15;38.18;47.63;;
37279;Laerm;7458;49.002;8.472;2023-07-08T01:20:02;48.36;38.37;64.75;;
37279;Laerm;7458;49.002;8.472;2023-07-08T01:22:35;41.83;37.70;49.57;;
37279;Laerm;7458;49.002;8.472;2023-07-08T01:25:02;42.04;37.32;52.90;;
37279;Laerm;7458;49.002;8.472;2023-07-08T01:27:31;41.21;37.70;46.13;;
37279;Laerm;7458;49.002;8.472;2023-07-08T01:30:00;40.52;36.91;43.86;;
37279;Laerm;7458;49.002;8.472;2023-07-08T01:32:27;40.94;36.91;45.99;;
37279;Laerm;7458;49.002;8.472;2023-07-08T01:34:59;40.69;36.91;48.85;;
37279;Laerm;7458;49.002;8.472;2023-07-08T01:37:41;41.02;36.91;58.78;;
37279;Laerm;7458;49.002;8.472;2023-07-08T01:42:56;41.11;36.69;50.74;;
37279;Laerm;7458;49.002;8.472;2023-07-08T01:45:26;40.36;36.69;43.94;;
37279;Laerm;7458;49.002;8.472;2023-07-08T01:47:56;41.88;37.52;46.66;;
37279;Laerm;7458;49.002;8.472;2023-07-08T01:50:24;41.04;36.91;49.10;;
37279;Laerm;7458;49.002;8.472;2023-07-08T01:52:53;40.15;36.45;45.33;;
37279;Laerm;7458;49.002;8.472;2023-07-08T01:55:26;41.03;36.45;55.16;;
37279;Laerm;7458;49.002;8.472;2023-07-08T01:57:54;40.39;36.20;46.87;;
37279;Laerm;7458;49.002;8.472;2023-07-08T02:00:21;41.08;36.69;52.45;;
37279;Laerm;7458;49.002;8.472;2023-07-08T02:02:49;41.23;36.20;57.58;;
37279;Laerm;7458;49.002;8.472;2023-07-08T02:05:15;40.16;35.94;50.50;;
37279;Laerm;7458;49.002;8.472;2023-07-08T02:07:41;40.56;36.91;45.01;;
37279;Laerm;7458;49.002;8.472;2023-07-08T02:10:08;40.85;36.69;45.20;;
37279;Laerm;7458;49.002;8.472;2023-07-08T02:12:33;40.91;36.20;49.30;;
37279;Laerm;7458;49.002;8.472;2023-07-08T02:15:03;41.50;37.70;48.05;;
37279;Laerm;7458;49.002;8.472;2023-07-08T02:17:29;41.01;37.32;47.20;;
37279;Laerm;7458;49.002;8.472;2023-07-08T02:19:56;52.99;37.52;74.91;;
37279;Laerm;7458;49.002;8.472;2023-07-08T02:22:22;41.94;37.32;58.05;;
37279;Laerm;7458;49.002;8.472;2023-07-08T02:24:48;41.23;38.21;49.35;;
37279;Laerm;7458;49.002;8.472;2023-07-08T02:27:14;52.17;38.37;71.42;;
37279;Laerm;7458;49.002;8.472;2023-07-08T02:29:40;55.21;37.52;74.72;;
37279;Laerm;7458;49.002;8.472;2023-07-08T02:32:09;41.67;38.37;50.68;;
37279;Laerm;7458;49.002;8.472;2023-07-08T02:34:36;42.34;38.21;48.40;;
37279;Laerm;7458;49.002;8.472;2023-07-08T02:37:03;43.62;39.46;53.28;;
37279;Laerm;7458;49.002;8.472;2023-07-08T02:39:28;46.01;38.21;63.45;;
37279;Laerm;7458;49.002;8.472;2023-07-08T02:41:54;56.19;38.52;76.39;;
37279;Laerm;7458;49.002;8.472;2023-07-08T02:44:20;52.74;38.52;72.38;;
37279;Laerm;7458;49.002;8.472;2023-07-08T02:46:46;48.74;38.67;62.48;;
37279;Laerm;7458;49.002;8.472;2023-07-08T02:49:11;49.90;39.08;62.61;;
37279;Laerm;7458;49.002;8.472;2023-07-08T02:51:37;50.54;39.08;64.17;;
37279;Laerm;7458;49.002;8.472;2023-07-08T02:54:03;50.90;39.70;64.36;;
37279;Laerm;7458;49.002;8.472;2023-07-08T02:56:29;51.02;39.58;65.22;;
37279;Laerm;7458;49.002;8.472;2023-07-08T02:58:55;54.00;38.52;71.13;;
37279;Laerm;7458;49.002;8.472;2023-07-08T03:01:20;51.54;39.21;64.77;;
37279;Laerm;7458;49.002;8.472;2023-07-08T03:03:47;51.85;40.03;65.54;;
37279;Laerm;7458;49.002;8.472;2023-07-08T03:06:14;52.20;39.21;65.99;;
37279;Laerm;7458;49.002;8.472;2023-07-08T03:08:40;51.98;39.08;65.75;;
37279;Laerm;7458;49.002;8.472;2023-07-08T03:11:07;51.98;40.03;65.78;;
37279;Laerm;7458;49.002;8.472;2023-07-08T03:13:34;49.79;40.33;62.37;;
37279;Laerm;7458;49.002;8.472;2023-07-08T03:16:01;51.35;40.43;63.92;;
37279;Laerm;7458;49.002;8.472;2023-07-08T03:18:29;49.18;40.36;60.41;;
37279;Laerm;7458;49.002;8.472;2023-07-08T03:20:57;47.60;40.33;59.25;;
37279;Laerm;7458;49.002;8.472;2023-07-08T03:23:24;48.25;40.23;59.30;;
37279;Laerm;7458;49.002;8.472;2023-07-08T03:25:51;48.41;40.62;58.03;;
37279;Laerm;7458;49.002;8.472;2023-07-08T03:28:17;48.32;40.03;60.38;;
37279;Laerm;7458;49.002;8.472;2023-07-08T03:30:44;48.48;40.89;56.52;;
37279;Laerm;7458;49.002;8.472;2023-07-08T03:33:11;49.44;39.81;62.87;;
37279;Laerm;7458;49.002;8.472;2023-07-08T03:35:38;47.00;39.46;58.79;;
37279;Laerm;7458;49.002;8.472;2023-07-08T03:38:06;50.30;39.58;65.78;;
37279;Laerm;7458;49.002;8.472;2023-07-08T03:40:35;49.86;39.58;61.84;;
37279;Laerm;7458;49.002;8.472;2023-07-08T03:43:00;48.24;39.70;59.74;;
37279;Laerm;7458;49.002;8.472;2023-07-08T03:45:26;49.15;40.98;59.55;;
37279;Laerm;7458;49.002;8.472;2023-07-08T03:47:52;48.70;40.33;60.22;;
37279;Laerm;7458;49.002;8.472;2023-07-08T03:50:22;70.77;40.43;94.52;;
37279;Laerm;7458;49.002;8.472;2023-07-08T03:52:50;58.09;40.13;78.13;;
37279;Laerm;7458;49.002;8.472;2023-07-08T03:55:16;53.95;40.45;72.36;;
37279;Laerm;7458;49.002;8.472;2023-07-08T03:57:43;47.02;37.70;58.85;;
37279;Laerm;7458;49.002;8.472;2023-07-08T04:00:09;48.83;38.52;64.28;;
37279;Laerm;7458;49.002;8.472;2023-07-08T04:02:44;48.11;38.99;63.12;;
37279;Laerm;7458;49.002;8.472;2023-07-08T04:05:19;50.62;39.21;65.63;;
37279;Laerm;7458;49.002;8.472;2023-07-08T04:07:46;47.72;38.81;59.06;;
37279;Laerm;7458;49.002;8.472;2023-07-08T04:10:13;47.53;39.58;58.25;;
37279;Laerm;7458;49.002;8.472;2023-07-08T04:12:40;46.80;39.70;62.16;;
37279;Laerm;7458;49.002;8.472;2023-07-08T04:15:11;54.96;38.95;76.12;;
37279;Laerm;7458;49.002;8.472;2023-07-08T04:17:43;46.55;38.67;58.05;;
37279;Laerm;7458;49.002;8.472;2023-07-08T04:20:13;48.06;38.67;59.92;;
37279;Laerm;7458;49.002;8.472;2023-07-08T04:22:40;48.67;39.70;64.04;;
37279;Laerm;7458;49.002;8.472;2023-07-08T04:25:06;47.98;37.88;59.98;;
37279;Laerm;7458;49.002;8.472;2023-07-08T04:27:32;50.84;39.21;65.06;;
37279;Laerm;7458;49.002;8.472;2023-07-08T04:29:58;46.38;38.52;58.59;;
37279;Laerm;7458;49.002;8.472;2023-07-08T04:32:24;50.95;40.03;69.22;;
37279;Laerm;7458;49.002;8.472;2023-07-08T04:34:51;51.84;38.87;69.47;;
37279;Laerm;7458;49.002;8.472;2023-07-08T04:37:17;54.20;38.95;73.54;;
37279;Laerm;7458;49.002;8.472;2023-07-08T04:39:45;52.98;39.46;72.04;;
37279;Laerm;7458;49.002;8.472;2023-07-08T04:42:13;49.21;39.70;65.18;;
37279;Laerm;7458;49.002;8.472;2023-07-08T04:44:42;49.10;39.46;61.50;;
37279;Laerm;7458;49.002;8.472;2023-07-08T04:47:08;48.70;38.81;60.86;;
37279;Laerm;7458;49.002;8.472;2023-07-08T04:49:35;53.27;37.12;70.48;;
37279;Laerm;7458;49.002;8.472;2023-07-08T04:52:02;50.52;38.52;78.27;;
37279;Laerm;7458;49.002;8.472;2023-07-08T04:54:28;48.69;39.46;60.11;;
37279;Laerm;7458;49.002;8.472;2023-07-08T04:56:54;44.16;37.12;56.34;;
37279;Laerm;7458;49.002;8.472;2023-07-08T04:59:25;56.12;38.95;72.76;;
37279;Laerm;7458;49.002;8.472;2023-07-08T05:01:51;44.76;37.70;63.87;;
37279;Laerm;7458;49.002;8.472;2023-07-08T05:04:20;44.61;37.52;61.45;;
37279;Laerm;7458;49.002;8.472;2023-07-08T05:06:47;47.10;38.81;65.63;;
37279;Laerm;7458;49.002;8.472;2023-07-08T05:09:13;51.82;42.22;69.92;;
37279;Laerm;7458;49.002;8.472;2023-07-08T05:11:39;46.77;41.89;68.54;;
37279;Laerm;7458;49.002;8.472;2023-07-08T05:14:05;45.90;40.71;59.19;;
37279;Laerm;7458;49.002;8.472;2023-07-08T05:16:34;48.33;41.30;65.18;;
37279;Laerm;7458;49.002;8.472;2023-07-08T05:19:02;53.90;41.82;73.86;;
37279;Laerm;7458;49.002;8.472;2023-07-08T05:21:29;54.78;42.03;74.58;;
37279;Laerm;7458;49.002;8.472;2023-07-08T05:24:03;47.27;43.14;56.45;;
37279;Laerm;7458;49.002;8.472;2023-07-08T05:26:30;49.97;42.53;60.54;;
37279;Laerm;7458;49.002;8.472;2023-07-08T05:28:56;47.46;41.82;62.97;;
37279;Laerm;7458;49.002;8.472;2023-07-08T05:31:22;49.10;42.47;63.60;;
37279;Laerm;7458;49.002;8.472;2023-07-08T05:33:48;49.24;42.35;63.97;;
37279;Laerm;7458;49.002;8.472;2023-07-08T05:36:13;53.06;42.41;83.24;;
37279;Laerm;7458;49.002;8.472;2023-07-08T05:38:39;55.75;41.68;75.91;;
37279;Laerm;7458;49.002;8.472;2023-07-08T05:41:05;51.71;41.46;67.08;;
37279;Laerm;7458;49.002;8.472;2023-07-08T05:43:31;50.38;42.29;61.82;;
37279;Laerm;7458;49.002;8.472;2023-07-08T05:45:59;51.15;41.96;67.84;;
37279;Laerm;7458;49.002;8.472;2023-07-08T05:48:26;48.98;41.14;60.17;;
37279;Laerm;7458;49.002;8.472;2023-07-08T05:50:52;55.03;41.89;71.50;;
37279;Laerm;7458;49.002;8.472;2023-07-08T05:53:19;52.99;40.98;71.38;;
37279;Laerm;7458;49.002;8.472;2023-07-08T05:55:49;56.41;41.96;70.67;;
37279;Laerm;7458;49.002;8.472;2023-07-08T05:58:17;52.26;41.53;67.87;;
37279;Laerm;7458;49.002;8.472;2023-07-08T06:00:44;51.97;41.46;75.08;;
37279;Laerm;7458;49.002;8.472;2023-07-08T06:03:11;55.89;42.16;74.37;;
37279;Laerm;7458;49.002;8.472;2023-07-08T06:05:37;50.59;42.59;77.69;;
37279;Laerm;7458;49.002;8.472;2023-07-08T06:08:05;51.34;41.61;70.88;;
37279;Laerm;7458;49.002;8.472;2023-07-08T06:10:31;50.00;41.22;72.92;;
37279;Laerm;7458;49.002;8.472;2023-07-08T06:12:56;53.03;41.75;79.46;;
37279;Laerm;7458;49.002;8.472;2023-07-08T06:15:22;56.78;42.09;78.00;;
37279;Laerm;7458;49.002;8.472;2023-07-08T06:17:48;52.37;41.96;71.59;;
37279;Laerm;7458;49.002;8.472;2023-07-08T06:20:14;52.54;41.06;73.56;;
37279;Laerm;7458;49.002;8.472;2023-07-08T06:22:39;45.81;41.68;56.03;;
37279;Laerm;7458;49.002;8.472;2023-07-08T06:25:06;53.06;42.16;71.84;;
37279;Laerm;7458;49.002;8.472;2023-07-08T06:27:31;56.72;41.96;73.88;;
37279;Laerm;7458;49.002;8.472;2023-07-08T06:29:57;54.18;42.03;78.48;;
37279;Laerm;7458;49.002;8.472;2023-07-08T06:32:23;56.64;43.09;78.57;;
37279;Laerm;7458;49.002;8.472;2023-07-08T06:34:48;53.28;42.71;67.90;;
37279;Laerm;7458;49.002;8.472;2023-07-08T06:37:14;51.49;42.09;80.96;;
37279;Laerm;7458;49.002;8.472;2023-07-08T06:39:40;62.09;42.59;82.85;;
37279;Laerm;7458;49.002;8.472;2023-07-08T06:42:06;54.87;41.53;69.53;;
37279;Laerm;7458;49.002;8.472;2023-07-08T06:44:32;55.28;42.16;71.08;;
37279;Laerm;7458;49.002;8.472;2023-07-08T06:46:57;53.19;42.16;70.30;;
37279;Laerm;7458;49.002;8.472;2023-07-08T06:49:23;54.67;42.29;71.43;;
37279;Laerm;7458;49.002;8.472;2023-07-08T06:51:49;55.49;41.82;72.84;;
37279;Laerm;7458;49.002;8.472;2023-07-08T06:54:14;61.76;43.34;83.29;;
37279;Laerm;7458;49.002;8.472;2023-07-08T06:56:41;54.59;42.82;67.66;;
37279;Laerm;7458;49.002;8.472;2023-07-08T06:59:08;48.67;42.16;60.22;;
37279;Laerm;7458;49.002;8.472;2023-07-08T07:01:34;53.96;41.46;69.08;;
37279;Laerm;7458;49.002;8.472;2023-07-08T07:04:02;53.23;41.46;66.73;;
37279;Laerm;7458;49.002;8.472;2023-07-08T07:06:29;50.53;41.48;66.64;;
37279;Laerm;7458;49.002;8.472;2023-07-08T07:08:55;49.85;39.34;68.07;;
37279;Laerm;7458;49.002;8.472;2023-07-08T07:11:21;51.37;40.53;70.27;;
37279;Laerm;7458;49.002;8.472;2023-07-08T07:13:47;53.63;41.22;68.01;;
37279;Laerm;7458;49.002;8.472;2023-07-08T07:16:13;49.41;41.68;61.36;;
37279;Laerm;7458;49.002;8.472;2023-07-08T07:18:39;47.91;39.81;69.48;;
37279;Laerm;7458;49.002;8.472;2023-07-08T07:21:04;53.15;40.53;71.74;;
37279;Laerm;7458;49.002;8.472;2023-07-08T07:23:30;51.86;41.14;72.95;;
37279;Laerm;7458;49.002;8.472;2023-07-08T07:25:56;52.87;40.23;68.70;;
37279;Laerm;7458;49.002;8.472;2023-07-08T07:28:23;52.81;41.22;68.06;;
37279;Laerm;7458;49.002;8.472;2023-07-08T07:30:59;49.82;40.53;67.61;;
37279;Laerm;7458;49.002;8.472;2023-07-08T07:33:26;50.09;40.98;67.41;;
37279;Laerm;7458;49.002;8.472;2023-07-08T07:35:52;53.40;40.98;68.08;;
37279;Laerm;7458;49.002;8.472;2023-07-08T07:38:18;52.59;40.62;71.89;;
37279;Laerm;7458;49.002;8.472;2023-07-08T07:40:45;54.18;41.22;75.33;;
37279;Laerm;7458;49.002;8.472;2023-07-08T07:43:10;53.29;40.53;74.17;;
37279;Laerm;7458;49.002;8.472;2023-07-08T07:45:36;54.23;41.61;70.46;;
37279;Laerm;7458;49.002;8.472;2023-07-08T07:48:03;56.33;41.11;74.94;;
37279;Laerm;7458;49.002;8.472;2023-07-08T07:50:30;54.52;41.75;72.08;;
37279;Laerm;7458;49.002;8.472;2023-07-08T07:52:56;53.89;40.23;71.17;;
37279;Laerm;7458;49.002;8.472;2023-07-08T07:55:22;52.36;41.48;66.64;;
37279;Laerm;7458;49.002;8.472;2023-07-08T07:57:48;58.10;41.53;76.67;;
37279;Laerm;7458;49.002;8.472;2023-07-08T08:00:14;57.23;40.63;71.65;;
37279;Laerm;7458;49.002;8.472;2023-07-08T08:02:44;49.25;41.53;60.48;;
37279;Laerm;7458;49.002;8.472;2023-07-08T08:05:10;49.62;38.95;66.12;;
37279;Laerm;7458;49.002;8.472;2023-07-08T08:07:35;53.83;41.38;68.93;;
37279;Laerm;7458;49.002;8.472;2023-07-08T08:10:04;50.77;40.53;65.12;;
37279;Laerm;7458;49.002;8.472;2023-07-08T08:12:30;54.79;41.96;68.76;;
37279;Laerm;7458;49.002;8.472;2023-07-08T08:14:56;51.68;41.82;71.26;;
37279;Laerm;7458;49.002;8.472;2023-07-08T08:17:21;50.91;40.62;65.71;;
37279;Laerm;7458;49.002;8.472;2023-07-08T08:19:47;53.42;39.58;72.11;;
37279;Laerm;7458;49.002;8.472;2023-07-08T08:22:14;59.62;41.61;78.07;;
37279;Laerm;7458;49.002;8.472;2023-07-08T08:24:40;52.10;41.68;68.26;;
37279;Laerm;7458;49.002;8.472;2023-07-08T08:27:06;56.99;41.61;73.00;;
37279;Laerm;7458;49.002;8.472;2023-07-08T08:29:32;57.85;42.59;84.68;;
37279;Laerm;7458;49.002;8.472;2023-07-08T08:31:57;52.99;40.62;71.47;;
37279;Laerm;7458;49.002;8.472;2023-07-08T08:34:23;52.35;40.80;70.66;;
37279;Laerm;7458;49.002;8.472;2023-07-08T08:36:56;47.65;40.80;68.98;;
37279;Laerm;7458;49.002;8.472;2023-07-08T08:39:28;48.05;40.43;71.16;;
37279;Laerm;7458;49.002;8.472;2023-07-08T08:41:56;62.88;42.65;91.93;;
37279;Laerm;7458;49.002;8.472;2023-07-08T08:44:34;52.10;42.19;68.63;;
37279;Laerm;7458;49.002;8.472;2023-07-08T08:47:17;51.61;42.16;70.36;;
37279;Laerm;7458;49.002;8.472;2023-07-08T08:53:11;60.60;42.16;84.43;;
37279;Laerm;7458;49.002;8.472;2023-07-08T08:55:37;51.47;40.71;70.06;;
37279;Laerm;7458;49.002;8.472;2023-07-08T09:00:58;53.88;41.94;71.68;;
37279;Laerm;7458;49.002;8.472;2023-07-08T09:03:37;54.93;41.14;76.39;;
37279;Laerm;7458;49.002;8.472;2023-07-08T09:08:41;58.44;41.46;78.18;;
37279;Laerm;7458;49.002;8.472;2023-07-08T09:14:28;55.91;40.80;72.55;;
37279;Laerm;7458;49.002;8.472;2023-07-08T09:19:52;56.17;42.82;85.19;;
37279;Laerm;7458;49.002;8.472;2023-07-08T09:22:40;55.86;42.93;72.55;;
37279;Laerm;7458;49.002;8.472;2023-07-08T09:27:41;58.69;42.59;81.03;;
37279;Laerm;7458;49.002;8.472;2023-07-08T09:30:21;52.97;42.98;68.91;;
37279;Laerm;7458;49.002;8.472;2023-07-08T09:32:49;53.85;41.88;72.08;;
37279;Laerm;7458;49.002;8.472;2023-07-08T09:35:41;52.45;42.16;71.72;;
37279;Laerm;7458;49.002;8.472;2023-07-08T09:38:18;57.18;41.68;78.82;;
37279;Laerm;7458;49.002;8.472;2023-07-08T09:40:52;52.10;42.82;66.52;;
37279;Laerm;7458;49.002;8.472;2023-07-08T09:43:49;54.04;44.03;69.31;;
37279;Laerm;7458;49.002;8.472;2023-07-08T09:46:16;49.59;41.68;66.15;;
37279;Laerm;7458;49.002;8.472;2023-07-08T09:48:42;52.85;42.88;65.77;;
37279;Laerm;7458;49.002;8.472;2023-07-08T09:51:08;50.71;42.53;68.37;;
37279;Laerm;7458;49.002;8.472;2023-07-08T09:53:36;53.33;42.71;68.83;;
37279;Laerm;7458;49.002;8.472;2023-07-08T09:56:04;53.00;42.35;73.06;;
37279;Laerm;7458;49.002;8.472;2023-07-08T09:58:41;53.50;41.48;70.29;;
37279;Laerm;7458;49.002;8.472;2023-07-08T10:01:21;52.63;42.88;70.72;;
37279;Laerm;7458;49.002;8.472;2023-07-08T10:03:49;50.18;41.68;69.38;;
37279;Laerm;7458;49.002;8.472;2023-07-08T10:06:30;52.17;42.35;67.50;;
37279;Laerm;7458;49.002;8.472;2023-07-08T10:09:04;52.62;42.76;70.39;;
37279;Laerm;7458;49.002;8.472;2023-07-08T10:11:46;50.46;42.88;63.54;;
37279;Laerm;7458;49.002;8.472;2023-07-08T10:14:24;63.68;42.59;86.92;;
37279;Laerm;7458;49.002;8.472;2023-07-08T10:16:51;47.99;40.62;57.13;;
37279;Laerm;7458;49.002;8.472;2023-07-08T10:19:20;53.58;42.30;72.18;;
37279;Laerm;7458;49.002;8.472;2023-07-08T10:25:11;49.83;41.82;65.71;;
37279;Laerm;7458;49.002;8.472;2023-07-08T10:27:50;57.67;41.89;81.82;;
37279;Laerm;7458;49.002;8.472;2023-07-08T10:30:43;55.77;41.75;77.70;;
37279;Laerm;7458;49.002;8.472;2023-07-08T10:34:15;53.09;42.35;69.22;;
37279;Laerm;7458;49.002;8.472;2023-07-08T10:37:07;52.78;41.61;69.49;;
37279;Laerm;7458;49.002;8.472;2023-07-08T10:40:19;53.31;43.14;73.86;;
37279;Laerm;7458;49.002;8.472;2023-07-08T10:43:13;62.41;43.14;88.87;;
37279;Laerm;7458;49.002;8.472;2023-07-08T10:57:48;51.28;41.82;68.23;;
37279;Laerm;7458;49.002;8.472;2023-07-08T11:06:29;54.73;42.71;69.54;;
37279;Laerm;7458;49.002;8.472;2023-07-08T11:09:04;49.73;42.16;65.86;;
37279;Laerm;7458;49.002;8.472;2023-07-08T11:11:53;57.20;42.09;77.52;;
37279;Laerm;7458;49.002;8.472;2023-07-08T11:17:22;46.20;40.80;67.66;;
37279;Laerm;7458;49.002;8.472;2023-07-08T11:20:20;47.59;38.81;68.29;;
37279;Laerm;7458;49.002;8.472;2023-07-08T11:23:06;50.03;41.38;67.55;;
37279;Laerm;7458;49.002;8.472;2023-07-08T11:25:37;55.74;42.53;74.12;;
37279;Laerm;7458;49.002;8.472;2023-07-08T11:28:15;54.13;40.89;66.25;;
37279;Laerm;7458;49.002;8.472;2023-07-08T11:30:44;50.79;40.98;66.92;;
37279;Laerm;7458;49.002;8.472;2023-07-08T11:33:13;54.62;40.71;72.10;;
37279;Laerm;7458;49.002;8.472;2023-07-08T11:35:51;51.65;40.96;67.79;;
37279;Laerm;7458;49.002;8.472;2023-07-08T11:38:21;56.45;43.19;77.33;;
37279;Laerm;7458;49.002;8.472;2023-07-08T11:41:00;52.79;40.71;71.67;;
37279;Laerm;7458;49.002;8.472;2023-07-08T11:43:48;51.92;41.61;71.17;;
37279;Laerm;7458;49.002;8.472;2023-07-08T11:46:22;53.64;41.06;74.98;;
37279;Laerm;7458;49.002;8.472;2023-07-08T11:48:53;52.20;41.06;66.45;;
37279;Laerm;7458;49.002;8.472;2023-07-08T11:51:24;53.73;40.53;68.73;;
37279;Laerm;7458;49.002;8.472;2023-07-08T11:56:27;49.97;40.53;66.60;;
37279;Laerm;7458;49.002;8.472;2023-07-08T11:59:14;51.28;39.08;68.63;;
37279;Laerm;7458;49.002;8.472;2023-07-08T12:02:00;53.57;39.46;71.99;;
37279;Laerm;7458;49.002;8.472;2023-07-08T12:07:21;53.27;38.81;67.66;;
37279;Laerm;7458;49.002;8.472;2023-07-08T12:10:39;59.42;39.92;85.16;;
37279;Laerm;7458;49.002;8.472;2023-07-08T12:13:14;54.04;38.81;68.58;;
37279;Laerm;7458;49.002;8.472;2023-07-08T12:15:41;43.31;38.52;54.86;;
37279;Laerm;7458;49.002;8.472;2023-07-08T12:18:25;43.09;37.88;52.73;;
37279;Laerm;7458;49.002;8.472;2023-07-08T12:20:59;56.15;40.23;73.47;;
37279;Laerm;7458;49.002;8.472;2023-07-08T12:23:27;59.18;39.92;72.80;;
37279;Laerm;7458;49.002;8.472;2023-07-08T12:25:56;55.15;39.21;82.90;;
37279;Laerm;7458;49.002;8.472;2023-07-08T12:28:24;57.81;39.92;76.99;;
37279;Laerm;7458;49.002;8.472;2023-07-08T12:30:51;55.18;39.21;69.28;;
37279;Laerm;7458;49.002;8.472;2023-07-08T12:33:26;54.11;38.52;71.19;;
37279;Laerm;7458;49.002;8.472;2023-07-08T12:35:55;53.61;39.23;70.26;;
37279;Laerm;7458;49.002;8.472;2023-07-08T12:38:33;49.62;39.08;65.87;;
37279;Laerm;7458;49.002;8.472;2023-07-08T12:41:10;50.74;38.37;66.32;;
37279;Laerm;7458;49.002;8.472;2023-07-08T12:43:36;44.06;38.21;54.80;;
37279;Laerm;7458;49.002;8.472;2023-07-08T12:46:03;50.08;41.75;65.65;;
37279;Laerm;7458;49.002;8.472;2023-07-08T12:48:34;54.05;39.46;75.60;;
37279;Laerm;7458;49.002;8.472;2023-07-08T12:51:00;53.61;38.67;71.43;;
37279;Laerm;7458;49.002;8.472;2023-07-08T12:53:25;50.15;39.70;68.44;;
37279;Laerm;7458;49.002;8.472;2023-07-08T12:55:55;52.73;40.13;67.90;;
37279;Laerm;7458;49.002;8.472;2023-07-08T12:58:31;54.35;40.98;71.93;;
37279;Laerm;7458;49.002;8.472;2023-07-08T13:01:01;51.51;40.43;79.03;;
37279;Laerm;7458;49.002;8.472;2023-07-08T13:03:43;51.23;41.30;67.71;;
37279;Laerm;7458;49.002;8.472;2023-07-08T13:06:12;53.92;40.71;70.09;;
37279;Laerm;7458;49.002;8.472;2023-07-08T13:08:40;49.70;40.33;68.66;;
37279;Laerm;7458;49.002;8.472;2023-07-08T13:11:07;51.94;40.23;70.59;;
37279;Laerm;7458;49.002;8.472;2023-07-08T13:13:45;51.63;39.08;69.08;;
37279;Laerm;7458;49.002;8.472;2023-07-08T13:16:14;54.30;39.70;79.25;;
37279;Laerm;7458;49.002;8.472;2023-07-08T13:18:42;50.84;38.67;71.37;;
37279;Laerm;7458;49.002;8.472;2023-07-08T13:21:13;52.21;39.34;68.38;;
37279;Laerm;7458;49.002;8.472;2023-07-08T13:23:40;50.49;38.05;67.11;;
37279;Laerm;7458;49.002;8.472;2023-07-08T13:26:32;51.57;39.81;67.34;;
37279;Laerm;7458;49.002;8.472;2023-07-08T13:29:11;45.05;38.37;61.77;;
37279;Laerm;7458;49.002;8.472;2023-07-08T13:31:39;51.59;38.37;68.40;;
37279;Laerm;7458;49.002;8.472;2023-07-08T13:34:09;45.54;36.45;64.91;;
37279;Laerm;7458;49.002;8.472;2023-07-08T13:36:39;53.79;39.34;68.65;;
37279;Laerm;7458;49.002;8.472;2023-07-08T13:39:09;53.94;38.52;73.02;;
37279;Laerm;7458;49.002;8.472;2023-07-08T13:41:36;51.90;37.52;67.43;;
37279;Laerm;7458;49.002;8.472;2023-07-08T13:44:08;53.13;40.23;67.97;;
37279;Laerm;7458;49.002;8.472;2023-07-08T13:46:44;50.33;38.52;68.44;;
37279;Laerm;7458;49.002;8.472;2023-07-08T13:49:15;47.93;41.06;78.55;;
37279;Laerm;7458;49.002;8.472;2023-07-08T13:51:45;50.63;39.34;63.54;;
37279;Laerm;7458;49.002;8.472;2023-07-08T13:54:20;50.00;41.48;62.40;;
37279;Laerm;7458;49.002;8.472;2023-07-08T13:56:48;57.24;41.22;78.08;;
37279;Laerm;7458;49.002;8.472;2023-07-08T13:59:25;52.56;36.91;67.09;;
37279;Laerm;7458;49.002;8.472;2023-07-08T14:01:55;50.81;39.46;67.22;;
37279;Laerm;7458;49.002;8.472;2023-07-08T14:04:33;46.95;38.21;70.90;;
37279;Laerm;7458;49.002;8.472;2023-07-08T14:07:00;55.87;39.46;77.21;;
37279;Laerm;7458;49.002;8.472;2023-07-08T14:09:26;53.83;39.21;72.91;;
37279;Laerm;7458;49.002;8.472;2023-07-08T14:11:52;47.50;38.67;61.45;;
37279;Laerm;7458;49.002;8.472;2023-07-08T14:14:19;52.35;37.52;68.50;;
37279;Laerm;7458;49.002;8.472;2023-07-08T14:16:51;48.81;38.52;69.25;;
37279;Laerm;7458;49.002;8.472;2023-07-08T14:19:26;55.26;39.81;72.70;;
37279;Laerm;7458;49.002;8.472;2023-07-08T14:21:56;52.63;39.21;69.63;;
37279;Laerm;7458;49.002;8.472;2023-07-08T14:24:23;55.27;38.21;70.98;;
37279;Laerm;7458;49.002;8.472;2023-07-08T14:26:49;56.37;39.81;73.67;;
37279;Laerm;7458;49.002;8.472;2023-07-08T14:29:15;50.36;39.58;66.65;;
37279;Laerm;7458;49.002;8.472;2023-07-08T14:31:41;50.79;36.45;70.45;;
37279;Laerm;7458;49.002;8.472;2023-07-08T14:34:13;52.65;39.58;69.97;;
37279;Laerm;7458;49.002;8.472;2023-07-08T14:36:40;55.25;40.89;69.42;;
37279;Laerm;7458;49.002;8.472;2023-07-08T14:39:15;56.21;41.53;82.12;;
37279;Laerm;7458;49.002;8.472;2023-07-08T14:41:42;50.72;38.52;65.70;;
37279;Laerm;7458;49.002;8.472;2023-07-08T14:44:33;51.47;37.70;70.96;;
37279;Laerm;7458;49.002;8.472;2023-07-08T14:47:00;52.83;38.37;67.97;;
37279;Laerm;7458;49.002;8.472;2023-07-08T14:49:27;50.13;39.21;68.93;;
37279;Laerm;7458;49.002;8.472;2023-07-08T14:51:54;57.15;40.53;76.39;;
37279;Laerm;7458;49.002;8.472;2023-07-08T14:54:21;49.81;39.08;62.17;;
37279;Laerm;7458;49.002;8.472;2023-07-08T14:56:48;52.11;38.81;66.87;;
37279;Laerm;7458;49.002;8.472;2023-07-08T14:59:22;52.15;39.34;68.73;;
37279;Laerm;7458;49.002;8.472;2023-07-08T15:01:49;52.61;40.03;69.05;;
37279;Laerm;7458;49.002;8.472;2023-07-08T15:04:18;48.62;37.70;67.77;;
37279;Laerm;7458;49.002;8.472;2023-07-08T15:06:45;52.05;37.32;68.66;;
37279;Laerm;7458;49.002;8.472;2023-07-08T15:09:12;52.57;38.05;70.83;;